Time;durP1;ratioP1;P1;durP2;ratioP2;P2;SDS_P1;SDS_P2;PMS_P1;PMS_P2;Temp;Humidity;BMP_temperature;BMP_pressure;BME280_temperature;BME280_humidity;BME280_pressure;Samples;Min_cycle;Max_cycle;Signal;HPM_P1;HPM_P2
2022/09/06 00:01:59;;;;;;;6.60;1.70;;;11.10;99.90;;;;;;4789399;29;20207;-80
2022/09/06 00:04:26;;;;;;;5.87;1.73;;;11.00;99.90;;;;;;4805822;29;20223;-81
2022/09/06 00:06:53;;;;;;;4.90;1.93;;;11.10;99.90;;;;;;4804455;29;20615;-83
2022/09/06 00:09:20;;;;;;;4.63;1.80;;;11.10;99.90;;;;;;4804542;29;20218;-78
2022/09/06 00:11:47;;;;;;;3.60;1.83;;;11.10;99.90;;;;;;4804265;29;20301;-80
2022/09/06 00:14:13;;;;;;;5.57;2.37;;;11.10;99.90;;;;;;4804204;29;20302;-80
2022/09/06 00:16:40;;;;;;;6.57;2.20;;;11.00;99.90;;;;;;4804578;29;20204;-80
2022/09/06 00:19:07;;;;;;;5.60;2.00;;;10.90;99.90;;;;;;4804537;29;20686;-80
2022/09/06 00:21:34;;;;;;;3.80;2.10;;;10.90;99.90;;;;;;4806353;29;20213;-79
2022/09/06 00:24:02;;;;;;;7.47;2.20;;;10.90;99.90;;;;;;4808144;29;20231;-80
2022/09/06 00:26:30;;;;;;;5.90;2.10;;;10.90;99.90;;;;;;4807800;29;20302;-78
2022/09/06 00:28:57;;;;;;;3.97;2.30;;;10.90;99.90;;;;;;4807921;29;20220;-79
2022/09/06 00:31:25;;;;;;;6.57;2.47;;;10.80;99.90;;;;;;4807815;29;20218;-81
2022/09/06 00:33:53;;;;;;;6.30;2.57;;;10.80;99.90;;;;;;4807998;29;20215;-79
2022/09/06 00:36:23;;;;;;;3.73;2.40;;;10.70;99.90;;;;;;4808008;29;20278;-79
2022/09/06 00:38:50;;;;;;;6.07;2.40;;;10.70;99.90;;;;;;4808253;29;20306;-80
2022/09/06 00:41:17;;;;;;;5.70;2.40;;;10.60;99.90;;;;;;4804455;29;20205;-79
2022/09/06 00:43:45;;;;;;;9.33;2.53;;;10.70;99.90;;;;;;4789652;30;20228;-78
2022/09/06 00:46:18;;;;;;;7.37;2.53;;;10.70;99.90;;;;;;4789670;29;20228;-77
2022/09/06 00:48:49;;;;;;;10.73;2.77;;;10.60;99.90;;;;;;4775475;30;20356;-79
2022/09/06 00:51:19;;;;;;;7.97;2.30;;;10.60;99.90;;;;;;4790669;29;20274;-80
2022/09/06 00:53:46;;;;;;;7.60;2.60;;;10.60;99.90;;;;;;4774651;30;20205;-79
2022/09/06 00:56:13;;;;;;;5.43;2.50;;;10.60;99.90;;;;;;4775114;30;20211;-79
2022/09/06 00:58:43;;;;;;;5.13;2.50;;;10.60;99.90;;;;;;4788657;29;20196;-78
2022/09/06 01:01:10;;;;;;;4.23;2.33;;;10.50;99.90;;;;;;4792379;29;20290;-78
2022/09/06 01:03:38;;;;;;;4.33;2.13;;;10.50;99.90;;;;;;4792400;29;20321;-79
2022/09/06 01:06:16;;;;;;;5.23;2.30;;;10.50;99.90;;;;;;4792431;29;20204;-78
2022/09/06 01:08:58;;;;;;;4.73;2.47;;;10.60;99.90;;;;;;4792488;29;20317;-79
2022/09/06 01:11:39;;;;;;;5.83;2.37;;;10.60;99.90;;;;;;4790605;30;20218;-79
2022/09/06 01:14:18;;;;;;;5.03;1.93;;;10.60;99.90;;;;;;4790734;30;20208;-79
2022/09/06 01:17:11;;;;;;;3.33;1.87;;;10.50;99.90;;;;;;4775056;30;20255;-79
2022/09/06 01:20:17;;;;;;;5.63;2.20;;;10.50;99.90;;;;;;4767550;30;20240;-81
2022/09/06 01:23:03;;;;;;;4.73;2.50;;;10.50;99.90;;;;;;4734808;30;20297;-80
2022/09/06 01:25:54;;;;;;;4.27;2.00;;;10.50;99.90;;;;;;4727410;30;20243;-79
2022/09/06 01:28:36;;;;;;;21.87;3.60;;;10.50;99.90;;;;;;4719785;30;20752;-79
2022/09/06 01:31:21;;;;;;;3.73;2.00;;;10.50;99.90;;;;;;4734585;30;20222;-79
2022/09/06 01:34:06;;;;;;;4.47;2.00;;;10.40;99.90;;;;;;4734162;30;20233;-80
2022/09/06 01:36:42;;;;;;;7.87;2.60;;;10.40;99.90;;;;;;4727780;30;20351;-80
2022/09/06 01:39:38;;;;;;;4.53;2.00;;;10.30;99.90;;;;;;4735097;30;20206;-79
2022/09/06 01:42:25;;;;;;;3.63;1.90;;;10.30;99.90;;;;;;4734579;30;20224;-79
2022/09/06 01:44:55;;;;;;;4.20;1.87;;;10.30;99.90;;;;;;4734352;30;20336;-79
2022/09/06 01:47:42;;;;;;;4.17;1.77;;;10.20;99.90;;;;;;4735082;30;20627;-78
2022/09/06 01:50:47;;;;;;;6.10;2.03;;;10.20;99.90;;;;;;4720037;30;20263;-78
2022/09/06 01:53:50;;;;;;;2.73;1.63;;;10.20;99.90;;;;;;4734445;30;20213;-78
2022/09/06 01:56:45;;;;;;;3.97;2.03;;;10.10;99.90;;;;;;4719341;30;20239;-79
2022/09/06 01:59:21;;;;;;;4.77;2.03;;;10.10;99.90;;;;;;4734592;29;20342;-80
2022/09/06 02:02:00;;;;;;;4.23;2.10;;;10.10;99.90;;;;;;4791260;29;20314;-80
2022/09/06 02:04:44;;;;;;;6.13;1.80;;;10.10;99.90;;;;;;4807715;29;20212;-80
2022/09/06 02:07:30;;;;;;;7.17;2.50;;;10.00;99.90;;;;;;4790718;29;20242;-77
2022/09/06 02:10:38;;;;;;;5.30;2.30;;;10.00;99.90;;;;;;4790686;29;20304;-80
2022/09/06 02:13:08;;;;;;;6.50;2.27;;;9.90;99.90;;;;;;4789387;30;20200;-81
2022/09/06 02:15:41;;;;;;;4.80;2.10;;;9.90;99.90;;;;;;4788119;30;20213;-82
2022/09/06 02:18:20;;;;;;;6.40;2.10;;;9.90;99.90;;;;;;4790819;29;20205;-83
2022/09/06 02:20:58;;;;;;;4.30;2.20;;;9.90;99.90;;;;;;4778934;29;20333;-83
2022/09/06 02:23:29;;;;;;;4.70;2.37;;;9.90;99.90;;;;;;4791427;29;20228;-81
2022/09/06 02:26:05;;;;;;;7.00;2.63;;;9.90;99.90;;;;;;4790950;29;20302;-82
2022/09/06 02:28:33;;;;;;;6.17;2.20;;;9.90;99.90;;;;;;4775493;29;20203;-83
2022/09/06 02:31:04;;;;;;;6.37;2.57;;;9.80;99.90;;;;;;4790768;29;20264;-83
2022/09/06 02:33:45;;;;;;;4.50;2.10;;;9.70;99.90;;;;;;4791121;29;20207;-83
2022/09/06 02:36:14;;;;;;;3.93;1.90;;;9.80;99.90;;;;;;4791204;29;20235;-82
2022/09/06 02:38:47;;;;;;;6.03;2.30;;;9.70;99.90;;;;;;4791149;29;20214;-85
2022/09/06 02:41:24;;;;;;;6.23;2.20;;;9.70;99.90;;;;;;4790655;29;20304;-81
2022/09/06 02:43:53;;;;;;;5.17;2.30;;;9.70;99.90;;;;;;4790454;29;20227;-82
2022/09/06 02:46:20;;;;;;;5.20;2.37;;;9.70;99.90;;;;;;4790337;29;20657;-83
2022/09/06 02:49:00;;;;;;;3.97;2.30;;;9.70;99.90;;;;;;4790847;29;20212;-83
2022/09/06 02:51:38;;;;;;;4.70;2.13;;;9.70;99.90;;;;;;4794296;29;20235;-83
2022/09/06 02:54:17;;;;;;;5.57;2.60;;;9.70;99.90;;;;;;4806783;29;20650;-83
2022/09/06 02:56:44;;;;;;;6.63;2.70;;;9.70;99.90;;;;;;4805700;29;20208;-82
2022/09/06 02:59:17;;;;;;;5.57;2.97;;;9.70;99.90;;;;;;4806367;29;20219;-84
2022/09/06 03:01:44;;;;;;;8.43;3.00;;;9.70;99.90;;;;;;4805418;29;20215;-84
2022/09/06 03:04:27;;;;;;;8.57;2.50;;;9.70;99.90;;;;;;4805724;29;20262;-84
2022/09/06 03:06:55;;;;;;;6.33;2.60;;;9.70;99.90;;;;;;4805091;29;20211;-84
2022/09/06 03:09:25;;;;;;;5.60;2.30;;;9.80;99.90;;;;;;4805728;29;20211;-84
2022/09/06 03:12:02;;;;;;;6.10;2.63;;;9.80;99.90;;;;;;4805405;29;20294;-85
2022/09/06 03:14:28;;;;;;;6.23;2.60;;;9.80;99.90;;;;;;4805362;29;20248;-84
2022/09/06 03:16:56;;;;;;;5.90;3.13;;;9.80;99.90;;;;;;4806494;29;20611;-86
2022/09/06 03:19:23;;;;;;;9.40;4.03;;;9.80;99.90;;;;;;4806495;29;20609;-84
2022/09/06 03:22:00;;;;;;;9.47;4.00;;;9.80;99.90;;;;;;4805105;29;20218;-83
2022/09/06 03:24:27;;;;;;;6.43;3.70;;;9.90;99.90;;;;;;4805323;29;20580;-83
2022/09/06 03:27:38;;;;;;;5.83;3.30;;;9.90;99.90;;;;;;4790345;29;20733;-83
2022/09/06 03:30:09;;;;;;;5.37;3.00;;;9.90;99.90;;;;;;4804998;29;20209;-83
2022/09/06 03:32:36;;;;;;;6.13;3.30;;;9.90;99.90;;;;;;4804898;29;20218;-82
2022/09/06 03:35:20;;;;;;;6.47;3.10;;;9.80;99.90;;;;;;4802883;29;20308;-84
2022/09/06 03:37:53;;;;;;;6.80;2.97;;;9.80;99.90;;;;;;4805092;29;20239;-84
2022/09/06 03:40:20;;;;;;;4.13;2.43;;;9.80;99.90;;;;;;4806676;29;20302;-83
2022/09/06 03:42:47;;;;;;;6.73;2.60;;;9.80;99.90;;;;;;4805551;29;20269;-83
2022/09/06 03:45:14;;;;;;;7.23;2.53;;;9.80;99.90;;;;;;4804428;29;20239;-82
2022/09/06 03:47:41;;;;;;;6.27;2.50;;;9.90;99.90;;;;;;4804970;29;20203;-82
2022/09/06 03:50:17;;;;;;;3.40;2.10;;;9.90;99.90;;;;;;4804772;29;20211;-82
2022/09/06 03:52:51;;;;;;;2.43;1.80;;;9.90;99.90;;;;;;4804428;29;20260;-83
2022/09/06 03:55:18;;;;;;;6.03;2.07;;;9.90;99.90;;;;;;4804254;29;20324;-83
2022/09/06 03:57:45;;;;;;;3.73;1.90;;;9.90;99.90;;;;;;4804445;29;20215;-84
2022/09/06 04:00:18;;;;;;;5.57;2.00;;;10.00;99.90;;;;;;4789532;29;20222;-82
2022/09/06 04:02:54;;;;;;;3.20;1.90;;;10.00;99.90;;;;;;4804330;29;20298;-83
2022/09/06 04:05:33;;;;;;;5.47;1.90;;;10.00;99.90;;;;;;4805500;29;20317;-83
2022/09/06 04:08:01;;;;;;;4.80;1.83;;;10.00;99.90;;;;;;4804722;29;20207;-81
2022/09/06 04:10:31;;;;;;;4.60;1.80;;;10.00;99.90;;;;;;4789477;29;20303;-82
2022/09/06 04:12:58;;;;;;;3.27;1.70;;;10.10;99.90;;;;;;4806045;29;20195;-81
2022/09/06 04:15:26;;;;;;;4.80;1.83;;;10.00;99.90;;;;;;4805736;29;20305;-81
2022/09/06 04:18:06;;;;;;;5.20;2.10;;;10.10;99.90;;;;;;4804669;29;20219;-82
2022/09/06 04:20:35;;;;;;;4.87;1.77;;;10.10;99.90;;;;;;4805819;29;20196;-82
2022/09/06 04:23:02;;;;;;;3.53;1.83;;;10.20;99.90;;;;;;4803967;29;20302;-82
2022/09/06 04:25:30;;;;;;;5.50;2.00;;;10.30;99.90;;;;;;4804245;29;20623;-84
2022/09/06 04:27:57;;;;;;;4.80;1.73;;;10.30;99.90;;;;;;4804815;29;20231;-84
2022/09/06 04:30:24;;;;;;;3.47;1.90;;;10.40;99.90;;;;;;4789470;29;20265;-83
2022/09/06 04:33:04;;;;;;;4.00;1.80;;;10.50;99.90;;;;;;4804305;29;20208;-84
2022/09/06 04:35:31;;;;;;;3.97;1.60;;;10.50;99.90;;;;;;4804285;29;20246;-83
2022/09/06 04:38:01;;;;;;;6.47;2.13;;;10.50;99.90;;;;;;4804499;29;20199;-83
2022/09/06 04:40:28;;;;;;;6.97;2.20;;;10.50;99.90;;;;;;4805412;29;20279;-83
2022/09/06 04:43:37;;;;;;;3.83;1.80;;;10.50;99.90;;;;;;4805549;29;20480;-87
2022/09/06 04:46:49;;;;;;;7.23;1.80;;;10.60;99.90;;;;;;4889193;24;20676;-87
2022/09/06 04:49:19;;;;;;;7.60;2.00;;;10.70;99.90;;;;;;4804248;29;20269;-87
2022/09/06 04:51:55;;;;;;;6.97;2.30;;;10.50;99.90;;;;;;4789956;29;20233;-86
2022/09/06 04:54:22;;;;;;;9.17;2.43;;;10.60;99.90;;;;;;4805069;29;20212;-86
2022/09/06 04:56:56;;;;;;;5.57;2.43;;;10.60;99.90;;;;;;4818641;24;20278;-87
2022/09/06 04:59:35;;;;;;;7.67;2.10;;;10.60;99.90;;;;;;4804409;29;20226;-88
2022/09/06 05:02:03;;;;;;;6.07;2.30;;;10.70;99.90;;;;;;4803702;29;20658;-85
2022/09/06 05:07:21;;;;;;;7.87;2.10;;;10.70;99.90;;;;;;4838262;24;20277;-83
2022/09/06 05:10:08;;;;;;;3.53;1.83;;;10.80;99.90;;;;;;4814720;29;20234;-84
2022/09/06 05:13:18;;;;;;;4.30;1.80;;;10.70;99.90;;;;;;4832890;24;20295;-85
2022/09/06 05:15:51;;;;;;;3.00;1.67;;;10.70;99.90;;;;;;4774384;30;20216;-86
2022/09/06 05:18:18;;;;;;;4.30;1.80;;;10.80;99.90;;;;;;4774637;30;20212;-85
2022/09/06 05:20:53;;;;;;;5.77;1.90;;;10.90;99.90;;;;;;4774099;30;20291;-83
2022/09/06 05:23:25;;;;;;;5.03;2.10;;;10.90;99.90;;;;;;4774820;30;20659;-85
2022/09/06 05:26:05;;;;;;;5.57;2.10;;;10.90;99.90;;;;;;4778085;30;20259;-81
2022/09/06 05:28:35;;;;;;;5.20;2.40;;;11.00;99.90;;;;;;4774628;30;20216;-86
2022/09/06 05:31:41;;;;;;;3.30;1.57;;;11.00;99.90;;;;;;4734919;30;20221;-86
2022/09/06 05:34:09;;;;;;;6.30;1.80;;;11.00;99.90;;;;;;4720258;30;20248;-86
2022/09/06 05:39:11;;;;;;;3.30;1.70;;;11.20;99.90;;;;;;4741485;27;20242;-85
2022/09/06 05:41:47;;;;;;;5.30;1.83;;;11.20;99.90;;;;;;4806882;29;20238;-83
2022/09/06 05:44:14;;;;;;;4.77;1.87;;;11.30;99.90;;;;;;4806616;29;20227;-84
2022/09/06 05:46:54;;;;;;;5.07;2.00;;;11.30;99.90;;;;;;4828847;24;20628;-84
2022/09/06 05:49:21;;;;;;;5.23;1.80;;;11.40;99.90;;;;;;4810715;29;20230;-82
2022/09/06 05:52:03;;;;;;;6.20;1.80;;;11.50;99.90;;;;;;4809723;29;20218;-86
2022/09/06 05:54:37;;;;;;;4.87;1.90;;;11.60;99.90;;;;;;4809494;29;20203;-82
2022/09/06 06:00:06;;;;;;;6.33;1.70;;;11.70;99.90;;;;;;4833503;24;20246;-82
2022/09/06 06:02:39;;;;;;;5.00;1.70;;;11.70;99.90;;;;;;4809616;29;20217;-83
2022/09/06 06:05:07;;;;;;;9.40;1.90;;;11.80;99.90;;;;;;4794800;29;20755;-82
2022/09/06 06:07:34;;;;;;;5.30;1.70;;;11.90;99.90;;;;;;4809543;29;20233;-81
2022/09/06 06:10:01;;;;;;;6.10;1.60;;;12.00;99.90;;;;;;4810483;29;20302;-85
2022/09/06 06:12:37;;;;;;;10.33;1.83;;;12.00;99.90;;;;;;4809710;29;20318;-82
2022/09/06 06:15:08;;;;;;;6.43;2.00;;;12.10;99.90;;;;;;4809693;29;20618;-82
2022/09/06 06:17:47;;;;;;;4.70;1.93;;;12.20;99.90;;;;;;4794173;29;20271;-83
2022/09/06 06:20:17;;;;;;;7.43;1.80;;;12.30;99.90;;;;;;4808775;29;20246;-82
2022/09/06 06:22:44;;;;;;;5.40;1.80;;;12.50;99.90;;;;;;4809181;29;20226;-84
2022/09/06 06:25:25;;;;;;;4.20;1.70;;;12.60;99.90;;;;;;4809644;29;20230;-83
2022/09/06 06:27:58;;;;;;;3.90;1.50;;;12.60;99.90;;;;;;4809024;29;20206;-85
2022/09/06 06:30:25;;;;;;;9.47;1.97;;;12.70;99.90;;;;;;4825215;29;20251;-80
2022/09/06 06:32:59;;;;;;;4.03;1.60;;;12.80;99.90;;;;;;4810523;29;20203;-85
2022/09/06 06:35:26;;;;;;;11.57;1.73;;;13.00;99.90;;;;;;4825612;29;20207;-80
2022/09/06 06:37:53;;;;;;;4.70;1.43;;;13.10;99.90;;;;;;4809359;29;20259;-84
2022/09/06 06:40:20;;;;;;;2.10;1.17;;;13.30;99.90;;;;;;4809567;29;20258;-87
2022/09/06 06:42:54;;;;;;;4.37;1.47;;;13.40;99.90;;;;;;4808954;29;20544;-91
2022/09/06 06:45:21;;;;;;;4.50;1.30;;;13.40;99.90;;;;;;4800101;29;20330;-81
2022/09/06 06:48:01;;;;;;;7.33;1.53;;;13.60;99.90;;;;;;4790956;29;20223;-84
2022/09/06 06:50:28;;;;;;;5.80;1.57;;;13.70;99.90;;;;;;4790855;29;20311;-84
2022/09/06 06:52:54;;;;;;;3.83;1.50;;;13.80;99.90;;;;;;4790737;29;20326;-81
2022/09/06 06:55:24;;;;;;;3.07;1.30;;;13.90;99.90;;;;;;4790630;29;20200;-86
2022/09/06 06:57:51;;;;;;;7.70;1.47;;;14.00;99.90;;;;;;4776054;29;20212;-82
2022/09/06 07:00:24;;;;;;;3.40;1.40;;;14.10;99.90;;;;;;4790279;29;20264;-82
2022/09/06 07:03:10;;;;;;;4.83;2.00;;;14.20;99.90;;;;;;4790739;29;20312;-80
2022/09/06 07:08:06;;;;;;;3.30;1.30;;;14.50;99.90;;;;;;4881382;24;20604;-86
2022/09/06 07:11:11;;;;;;;4.47;1.33;;;14.50;99.90;;;;;;4818066;24;20243;-82
2022/09/06 07:13:38;;;;;;;1.87;0.90;;;14.60;99.90;;;;;;4805347;29;20264;-80
2022/09/06 07:16:14;;;;;;;3.03;1.00;;;14.60;99.90;;;;;;4805252;29;20204;-83
2022/09/06 07:18:56;;;;;;;5.27;1.17;;;14.80;99.90;;;;;;4808026;24;20269;-80
2022/09/06 07:21:33;;;;;;;1.80;1.17;;;14.90;99.90;;;;;;4796204;29;20203;-82
2022/09/06 07:24:08;;;;;;;5.87;1.20;;;15.00;99.90;;;;;;4808067;29;20220;-79
2022/09/06 07:26:45;;;;;;;4.53;1.00;;;15.00;99.90;;;;;;4808244;29;20236;-79
2022/09/06 07:30:03;;;;;;;4.20;1.20;;;15.10;99.90;;;;;;4808093;29;20195;-80
2022/09/06 07:32:49;;;;;;;4.00;1.20;;;15.30;99.90;;;;;;4807611;29;20195;-81
2022/09/06 07:35:25;;;;;;;1.53;0.80;;;15.40;99.90;;;;;;4810291;29;20195;-81
2022/09/06 07:38:17;;;;;;;3.97;0.90;;;15.50;98.80;;;;;;4808690;29;20220;-82
2022/09/06 07:41:22;;;;;;;3.10;0.80;;;15.60;98.10;;;;;;4807739;29;20241;-82
2022/09/06 07:48:10;;;;;;;2.93;1.07;;;15.70;98.30;;;;;;4932697;24;20245;-81
2022/09/06 07:50:37;;;;;;;2.97;0.67;;;15.90;96.50;;;;;;4808120;29;20661;-80
2022/09/06 07:53:27;;;;;;;2.87;0.80;;;16.00;96.00;;;;;;4807012;29;20215;-83
2022/09/06 07:59:23;;;;;;;3.60;0.80;;;16.20;94.70;;;;;;4807724;29;20206;-79
2022/09/06 08:02:16;;;;;;;1.63;0.70;;;16.20;94.60;;;;;;4806468;24;20257;-82
2022/09/06 08:11:23;;;;;;;0.70;0.60;;;16.50;92.60;;;;;;4843744;24;20235;-83
2022/09/06 08:13:53;;;;;;;2.20;0.60;;;16.70;92.20;;;;;;4807776;29;20202;-78
2022/09/06 08:16:22;;;;;;;1.20;0.70;;;16.90;92.70;;;;;;4824428;29;20653;-77
2022/09/06 08:18:54;;;;;;;2.73;0.90;;;17.00;91.20;;;;;;4807777;29;20290;-78
2022/09/06 08:21:22;;;;;;;2.20;0.70;;;17.20;90.30;;;;;;4807804;29;20215;-75
2022/09/06 08:23:53;;;;;;;1.80;0.53;;;17.40;91.00;;;;;;4807543;29;20203;-77
2022/09/06 08:26:22;;;;;;;1.20;0.70;;;17.60;89.30;;;;;;4807775;29;20685;-77
2022/09/06 08:28:54;;;;;;;1.27;0.63;;;18.10;88.20;;;;;;4807408;29;20309;-76
2022/09/06 08:31:22;;;;;;;1.60;0.60;;;19.10;83.20;;;;;;4807510;29;20210;-76
2022/09/06 08:33:50;;;;;;;3.63;0.70;;;19.90;78.70;;;;;;4807323;29;20213;-77
2022/09/06 08:36:17;;;;;;;0.90;0.50;;;20.60;76.50;;;;;;4823826;29;20251;-75
2022/09/06 08:38:46;;;;;;;0.73;0.60;;;21.40;74.80;;;;;;4807105;29;20734;-75
2022/09/06 08:41:13;;;;;;;1.53;0.60;;;21.80;71.30;;;;;;4806970;29;20570;-73
2022/09/06 08:44:33;;;;;;;2.63;0.60;;;22.30;70.50;;;;;;4810532;29;20226;-74
2022/09/06 08:47:20;;;;;;;2.17;0.50;;;22.10;65.60;;;;;;4720759;30;20210;-75
2022/09/06 08:49:56;;;;;;;1.93;0.60;;;22.10;65.60;;;;;;4735519;30;20789;-75
2022/09/06 08:52:54;;;;;;;2.97;0.90;;;22.40;65.70;;;;;;4735473;30;20205;-76
2022/09/06 08:56:09;;;;;;;7.03;1.30;;;22.90;64.30;;;;;;4720718;30;20217;-75
2022/09/06 08:59:12;;;;;;;0.73;0.60;;;23.00;62.50;;;;;;4735300;30;20309;-79
2022/09/06 09:01:56;;;;;;;1.83;0.73;;;23.10;61.90;;;;;;4683365;30;20702;-75
2022/09/06 09:04:26;;;;;;;2.80;0.70;;;23.30;60.30;;;;;;4683016;30;20307;-72
2022/09/06 09:06:58;;;;;;;1.37;0.60;;;23.10;59.20;;;;;;4668624;30;20322;-71
2022/09/06 09:09:31;;;;;;;1.63;0.70;;;23.40;59.70;;;;;;4682843;30;20774;-74
2022/09/06 09:11:59;;;;;;;3.00;0.60;;;23.60;59.10;;;;;;4682678;30;20215;-75
2022/09/06 09:14:27;;;;;;;2.55;0.65;;;23.80;58.70;;;;;;4682572;30;20244;-73
2022/09/06 09:17:02;;;;;;;5.60;0.90;;;23.90;58.20;;;;;;4668560;30;20212;-68
2022/09/06 09:19:32;;;;;;;3.50;0.98;;;24.00;58.60;;;;;;4682780;30;20783;-75
2022/09/06 09:21:59;;;;;;;2.50;0.80;;;24.40;57.50;;;;;;4683639;30;20283;-71
2022/09/06 09:24:26;;;;;;;2.85;0.80;;;24.80;56.50;;;;;;4722917;30;20218;-72
2022/09/06 09:27:12;;;;;;;0.90;0.50;;;24.80;55.20;;;;;;4720172;30;20234;-73
2022/09/06 09:29:54;;;;;;;1.73;0.45;;;24.80;55.10;;;;;;4734653;30;20600;-74
2022/09/06 09:32:45;;;;;;;2.13;0.60;;;24.60;55.40;;;;;;4719772;30;20214;-72
2022/09/06 09:35:15;;;;;;;3.05;0.70;;;25.10;53.60;;;;;;4719924;30;20238;-77
2022/09/06 09:37:42;;;;;;;4.63;0.90;;;25.10;54.60;;;;;;4769712;29;20207;-75
2022/09/06 09:40:24;;;;;;;1.52;0.70;;;25.40;54.10;;;;;;4791584;29;20273;-74
2022/09/06 09:42:55;;;;;;;2.05;0.50;;;25.50;53.90;;;;;;4791546;29;20238;-68
2022/09/06 09:45:28;;;;;;;1.13;0.50;;;25.90;52.60;;;;;;4791320;29;20243;-69
2022/09/06 09:47:56;;;;;;;2.95;0.75;;;25.70;52.40;;;;;;4807936;29;20207;-73
2022/09/06 09:50:31;;;;;;;5.63;0.80;;;25.90;52.30;;;;;;4791536;29;20563;-75
2022/09/06 09:53:16;;;;;;;2.58;0.60;;;26.20;51.90;;;;;;4791222;29;20211;-75
2022/09/06 09:55:44;;;;;;;2.13;0.60;;;26.30;52.10;;;;;;4791259;29;20298;-77
2022/09/06 09:58:21;;;;;;;1.25;0.70;;;26.30;51.20;;;;;;4791247;29;20199;-76
2022/09/06 10:01:09;;;;;;;3.03;0.73;;;26.70;50.30;;;;;;4791062;29;20680;-74
2022/09/06 10:03:36;;;;;;;4.55;0.70;;;26.50;50.10;;;;;;4807504;29;20207;-75
2022/09/06 10:06:26;;;;;;;1.15;0.50;;;26.50;50.50;;;;;;4790983;29;20227;-76
2022/09/06 10:09:36;;;;;;;1.90;0.60;;;26.70;49.70;;;;;;4778619;29;20204;-73
2022/09/06 10:12:03;;;;;;;0.50;0.40;;;27.00;49.70;;;;;;4791352;29;20246;-74
2022/09/06 10:14:39;;;;;;;2.83;0.70;;;27.50;49.30;;;;;;4776535;29;20298;-73
2022/09/06 10:17:06;;;;;;;4.75;0.75;;;27.40;48.20;;;;;;4807671;29;20234;-75
2022/09/06 10:19:44;;;;;;;1.58;0.60;;;27.70;47.70;;;;;;4791210;29;20204;-76
2022/09/06 10:22:43;;;;;;;1.65;0.60;;;27.70;48.00;;;;;;4791353;29;20211;-74
2022/09/06 10:25:31;;;;;;;2.05;0.60;;;27.50;48.20;;;;;;4791027;29;20374;-75
2022/09/06 10:28:35;;;;;;;2.53;0.80;;;27.70;47.60;;;;;;4790998;29;20208;-75
2022/09/06 10:31:08;;;;;;;2.30;0.88;;;28.00;46.80;;;;;;4754361;30;20204;-72
2022/09/06 10:34:07;;;;;;;0.85;0.63;;;27.80;45.50;;;;;;4754614;30;20707;-73
2022/09/06 10:36:43;;;;;;;0.88;0.45;;;27.80;46.40;;;;;;4754025;30;20517;-78
2022/09/06 10:39:48;;;;;;;2.65;0.63;;;27.10;46.30;;;;;;4754544;30;20213;-77
2022/09/06 10:42:42;;;;;;;2.00;0.50;;;27.00;46.80;;;;;;4754154;30;20231;-74
2022/09/06 10:45:31;;;;;;;1.55;0.73;;;27.40;46.90;;;;;;4753799;30;20716;-71
2022/09/06 10:48:07;;;;;;;1.55;0.60;;;28.20;45.80;;;;;;4754474;30;20296;-75
2022/09/06 10:50:54;;;;;;;7.82;1.05;;;28.60;45.60;;;;;;4740292;30;20291;-78
2022/09/06 10:53:21;;;;;;;4.35;0.80;;;29.20;45.10;;;;;;4754249;30;20208;-76
2022/09/06 10:55:56;;;;;;;4.60;0.70;;;29.60;44.40;;;;;;4754418;30;20246;-80
2022/09/06 10:58:32;;;;;;;0.90;0.60;;;30.00;43.80;;;;;;4769281;30;20211;-75
2022/09/06 11:01:35;;;;;;;3.60;0.70;;;29.90;43.00;;;;;;4754087;30;20220;-77
2022/09/06 11:04:08;;;;;;;2.88;0.60;;;29.70;42.70;;;;;;4754535;30;20705;-79
2022/09/06 11:06:51;;;;;;;2.45;0.50;;;29.50;42.30;;;;;;4754268;30;20268;-77
2022/09/06 11:09:32;;;;;;;4.28;0.70;;;29.50;42.90;;;;;;4791254;29;20207;-76
2022/09/06 11:12:06;;;;;;;5.10;0.63;;;29.50;42.60;;;;;;4790621;29;20195;-78
2022/09/06 11:14:35;;;;;;;4.25;0.82;;;29.80;43.30;;;;;;4806690;29;20218;-75
2022/09/06 11:17:10;;;;;;;0.65;0.47;;;30.40;42.10;;;;;;4790526;29;20298;-73
2022/09/06 11:19:50;;;;;;;0.98;0.70;;;30.50;41.00;;;;;;4790508;29;20214;-73
2022/09/06 11:22:26;;;;;;;3.03;0.82;;;29.80;41.20;;;;;;4789960;29;20302;-70
2022/09/06 11:25:07;;;;;;;0.60;0.40;;;29.90;42.30;;;;;;4790020;29;20246;-77
2022/09/06 11:27:45;;;;;;;1.48;0.52;;;30.20;41.70;;;;;;4790480;29;20585;-77
2022/09/06 11:30:15;;;;;;;1.85;0.70;;;30.80;40.80;;;;;;4790208;29;20295;-76
2022/09/06 11:32:50;;;;;;;1.13;0.70;;;31.20;40.00;;;;;;4789798;29;20259;-71
2022/09/06 11:35:24;;;;;;;0.93;0.60;;;31.90;39.00;;;;;;4789849;29;20231;-73
2022/09/06 11:38:03;;;;;;;2.28;0.70;;;32.60;37.10;;;;;;4790129;29;20321;-75
2022/09/06 11:40:40;;;;;;;1.02;0.63;;;32.90;37.40;;;;;;4790121;29;20650;-75
2022/09/06 11:43:10;;;;;;;0.70;0.50;;;33.10;36.30;;;;;;4790288;29;20203;-79
2022/09/06 11:45:44;;;;;;;1.30;0.52;;;33.00;35.90;;;;;;4789417;29;20238;-72
2022/09/06 11:48:25;;;;;;;2.42;0.50;;;32.40;36.50;;;;;;4789779;29;20211;-76
2022/09/06 11:50:58;;;;;;;1.88;0.60;;;32.90;36.70;;;;;;4789781;29;20243;-73
2022/09/06 11:53:28;;;;;;;1.85;0.60;;;33.30;35.70;;;;;;4804538;29;20265;-75
2022/09/06 11:55:58;;;;;;;2.10;0.60;;;33.90;36.10;;;;;;4805853;29;20210;-71
2022/09/06 11:58:52;;;;;;;1.20;0.60;;;34.30;34.20;;;;;;4805841;29;20221;-73
2022/09/06 12:01:19;;;;;;;1.65;0.50;;;34.10;34.60;;;;;;4789613;29;20207;-73
2022/09/06 12:03:46;;;;;;;1.08;0.55;;;34.60;34.40;;;;;;4805634;29;20264;-76
2022/09/06 12:06:41;;;;;;;2.03;0.60;;;35.00;34.00;;;;;;4789387;29;20241;-76
2022/09/06 12:09:29;;;;;;;2.38;0.45;;;35.00;33.90;;;;;;4789304;29;20211;-78
2022/09/06 12:11:58;;;;;;;0.85;0.40;;;35.00;33.20;;;;;;4789256;29;20215;-77
2022/09/06 12:14:45;;;;;;;2.60;0.55;;;34.70;33.10;;;;;;4806346;29;20207;-74
2022/09/06 12:17:12;;;;;;;1.08;0.60;;;34.90;32.70;;;;;;4792125;29;20335;-77
2022/09/06 12:19:42;;;;;;;3.22;0.50;;;35.00;32.40;;;;;;4811605;29;20244;-78
2022/09/06 12:22:39;;;;;;;1.23;0.57;;;34.80;32.30;;;;;;4795206;29;20210;-73
2022/09/06 12:25:34;;;;;;;1.20;0.70;;;35.00;32.10;;;;;;4758871;30;20216;-75
2022/09/06 12:28:08;;;;;;;5.28;0.70;;;34.90;32.00;;;;;;4758549;30;20308;-74
2022/09/06 12:30:37;;;;;;;2.92;0.50;;;34.70;31.90;;;;;;4758594;30;20646;-72
2022/09/06 12:33:14;;;;;;;0.57;0.40;;;34.60;32.60;;;;;;4758688;30;20213;-77
2022/09/06 12:35:41;;;;;;;0.82;0.50;;;34.70;32.20;;;;;;4758884;30;20666;-72
2022/09/06 12:38:25;;;;;;;3.40;0.90;;;34.20;32.20;;;;;;4773445;30;20204;-73
2022/09/06 12:40:57;;;;;;;1.88;0.50;;;34.50;32.90;;;;;;4773850;30;20303;-73
2022/09/06 12:43:24;;;;;;;1.15;0.50;;;34.40;32.40;;;;;;4758916;30;20227;-76
2022/09/06 12:45:51;;;;;;;3.30;0.60;;;34.70;32.20;;;;;;4758126;30;20739;-73
2022/09/06 12:48:29;;;;;;;2.90;0.55;;;35.10;32.00;;;;;;4758651;30;20303;-75
2022/09/06 12:51:05;;;;;;;0.60;0.40;;;34.60;31.80;;;;;;4758685;30;20616;-79
2022/09/06 12:53:33;;;;;;;5.53;0.93;;;34.10;31.80;;;;;;4758725;30;20300;-76
2022/09/06 12:56:11;;;;;;;2.95;0.43;;;33.30;32.80;;;;;;4758446;30;20254;-74
2022/09/06 12:58:39;;;;;;;0.75;0.50;;;32.90;33.20;;;;;;4758655;30;20553;-73
2022/09/06 13:01:11;;;;;;;2.88;0.50;;;32.40;33.30;;;;;;4776971;29;20751;-73
2022/09/06 13:03:52;;;;;;;2.28;0.65;;;31.60;33.40;;;;;;4794836;29;20206;-70
2022/09/06 13:06:23;;;;;;;0.90;0.50;;;28.80;36.10;;;;;;4795036;29;20322;-77
2022/09/06 13:08:55;;;;;;;1.92;0.60;;;28.40;37.30;;;;;;4795275;29;20242;-76
2022/09/06 13:11:37;;;;;;;2.00;0.50;;;28.00;37.40;;;;;;4809172;29;20334;-77
2022/09/06 13:14:12;;;;;;;1.35;0.50;;;27.40;37.90;;;;;;4809837;29;20219;-77
2022/09/06 13:16:49;;;;;;;4.50;0.50;;;26.90;38.00;;;;;;4810088;29;20268;-79
2022/09/06 13:19:28;;;;;;;3.15;0.40;;;26.20;38.60;;;;;;4810002;29;20207;-72
2022/09/06 13:21:57;;;;;;;2.80;0.63;;;25.50;40.00;;;;;;4809778;29;20207;-79
2022/09/06 13:24:46;;;;;;;6.18;0.73;;;25.00;40.80;;;;;;4810424;29;20231;-78
2022/09/06 13:27:29;;;;;;;0.95;0.50;;;24.80;42.40;;;;;;4810235;29;20648;-76
2022/09/06 13:30:02;;;;;;;2.47;0.57;;;24.70;42.60;;;;;;4805860;29;20326;-75
2022/09/06 13:32:29;;;;;;;0.85;0.50;;;24.70;42.70;;;;;;4803971;29;20212;-75
2022/09/06 13:34:58;;;;;;;2.05;0.60;;;24.40;42.70;;;;;;4806841;29;20212;-75
2022/09/06 13:37:30;;;;;;;1.52;0.57;;;24.00;43.50;;;;;;4808158;29;20278;-76
2022/09/06 13:39:58;;;;;;;0.68;0.50;;;23.60;43.90;;;;;;4808065;29;20216;-76
2022/09/06 13:42:34;;;;;;;0.90;0.50;;;23.60;44.30;;;;;;4806684;29;20207;-76
2022/09/06 13:45:23;;;;;;;6.75;0.90;;;23.60;44.80;;;;;;4806029;29;20270;-77
2022/09/06 13:47:51;;;;;;;0.75;0.50;;;23.40;44.10;;;;;;4807687;29;20223;-74
2022/09/06 13:50:38;;;;;;;3.80;0.57;;;23.30;44.60;;;;;;4806547;29;20673;-74
2022/09/06 13:53:05;;;;;;;1.70;0.50;;;23.20;45.20;;;;;;4806179;29;20655;-78
2022/09/06 13:55:32;;;;;;;3.65;0.88;;;23.00;45.50;;;;;;4806628;29;20213;-72
2022/09/06 13:57:59;;;;;;;1.67;0.50;;;22.90;45.80;;;;;;4806624;29;20203;-73
2022/09/06 14:00:27;;;;;;;1.70;0.52;;;22.70;45.80;;;;;;4807476;29;20282;-74